Terminal Aerodrome Forecast
Issued by NWS New Orleans/Baton Rouge, LA

Home | Current Version | Previous Version | Text Only | Print | Product List | Glossary On
Versions: 1 2 3 4 5 6 7 8 9 10 11 12 13 14 15 16 17
782
FTUS44 KLIX 221721
TAFBTR
TAF
KBTR 221721Z 2218/2318 07004KT P6SM SCT035
     FM230400 VRB03KT P6SM SCT200
     FM231300 09005KT P6SM BKN110
     FM231600 10007KT P6SM BKN025=

USA.gov is the U.S. government's official web portal to all federal, state and local government web resources and services.